sensor_id;sensor_type;location;lat;lon;timestamp;temperature;humidity
20777;DHT22;10548;47.504;8.248;2023-07-20T00:01:05;20.70;81.40
20777;DHT22;10548;47.504;8.248;2023-07-20T00:03:32;20.70;79.70
20777;DHT22;10548;47.504;8.248;2023-07-20T00:05:59;20.70;79.90
20777;DHT22;10548;47.504;8.248;2023-07-20T00:08:26;20.80;79.50
20777;DHT22;10548;47.504;8.248;2023-07-20T00:10:54;20.80;78.90
20777;DHT22;10548;47.504;8.248;2023-07-20T00:13:21;20.80;79.10
20777;DHT22;10548;47.504;8.248;2023-07-20T00:15:48;20.80;77.30
20777;DHT22;10548;47.504;8.248;2023-07-20T00:18:15;20.80;77.70
20777;DHT22;10548;47.504;8.248;2023-07-20T00:20:42;20.70;78.90
20777;DHT22;10548;47.504;8.248;2023-07-20T00:23:09;20.70;77.80
20777;DHT22;10548;47.504;8.248;2023-07-20T00:25:37;20.70;77.50
20777;DHT22;10548;47.504;8.248;2023-07-20T00:28:04;20.70;78.00
20777;DHT22;10548;47.504;8.248;2023-07-20T00:30:31;20.70;77.50
20777;DHT22;10548;47.504;8.248;2023-07-20T00:32:58;20.70;77.30
20777;DHT22;10548;47.504;8.248;2023-07-20T00:35:25;20.70;77.30
20777;DHT22;10548;47.504;8.248;2023-07-20T00:37:53;20.70;77.50
20777;DHT22;10548;47.504;8.248;2023-07-20T00:40:20;20.70;79.10
20777;DHT22;10548;47.504;8.248;2023-07-20T00:42:47;20.60;76.60
20777;DHT22;10548;47.504;8.248;2023-07-20T00:45:21;20.70;77.70
20777;DHT22;10548;47.504;8.248;2023-07-20T00:47:48;20.60;77.40
20777;DHT22;10548;47.504;8.248;2023-07-20T00:50:15;20.70;76.20
20777;DHT22;10548;47.504;8.248;2023-07-20T00:52:45;20.60;77.70
20777;DHT22;10548;47.504;8.248;2023-07-20T00:55:12;20.60;78.90
20777;DHT22;10548;47.504;8.248;2023-07-20T00:57:39;20.50;81.20
20777;DHT22;10548;47.504;8.248;2023-07-20T01:00:10;20.50;78.40
20777;DHT22;10548;47.504;8.248;2023-07-20T01:02:38;20.40;80.60
20777;DHT22;10548;47.504;8.248;2023-07-20T01:05:06;20.30;81.50
20777;DHT22;10548;47.504;8.248;2023-07-20T01:07:41;20.30;79.70
20777;DHT22;10548;47.504;8.248;2023-07-20T01:10:25;20.30;79.10
20777;DHT22;10548;47.504;8.248;2023-07-20T01:12:55;20.30;80.20
20777;DHT22;10548;47.504;8.248;2023-07-20T01:15:23;20.30;79.00
20777;DHT22;10548;47.504;8.248;2023-07-20T01:17:51;20.30;80.40
20777;DHT22;10548;47.504;8.248;2023-07-20T01:20:19;20.20;79.00
20777;DHT22;10548;47.504;8.248;2023-07-20T01:23:20;20.20;79.10
20777;DHT22;10548;47.504;8.248;2023-07-20T01:30:04;20.20;79.20
20777;DHT22;10548;47.504;8.248;2023-07-20T01:32:36;20.10;80.80
20777;DHT22;10548;47.504;8.248;2023-07-20T01:35:05;20.10;80.20
20777;DHT22;10548;47.504;8.248;2023-07-20T01:37:34;20.00;79.60
20777;DHT22;10548;47.504;8.248;2023-07-20T01:40:01;20.10;80.80
20777;DHT22;10548;47.504;8.248;2023-07-20T01:42:29;20.00;80.20
20777;DHT22;10548;47.504;8.248;2023-07-20T01:44:56;20.00;82.00
20777;DHT22;10548;47.504;8.248;2023-07-20T01:47:23;19.90;80.80
20777;DHT22;10548;47.504;8.248;2023-07-20T01:49:50;19.90;82.10
20777;DHT22;10548;47.504;8.248;2023-07-20T01:52:17;19.80;83.90
20777;DHT22;10548;47.504;8.248;2023-07-20T01:54:44;19.80;83.70
20777;DHT22;10548;47.504;8.248;2023-07-20T01:57:12;19.90;83.80
20777;DHT22;10548;47.504;8.248;2023-07-20T01:59:39;19.80;83.50
20777;DHT22;10548;47.504;8.248;2023-07-20T02:02:06;19.80;82.20
20777;DHT22;10548;47.504;8.248;2023-07-20T02:04:33;19.80;82.30
20777;DHT22;10548;47.504;8.248;2023-07-20T02:07:00;19.80;82.70
20777;DHT22;10548;47.504;8.248;2023-07-20T02:09:27;19.80;82.40
20777;DHT22;10548;47.504;8.248;2023-07-20T02:11:54;19.80;81.70
20777;DHT22;10548;47.504;8.248;2023-07-20T02:14:22;19.70;82.80
20777;DHT22;10548;47.504;8.248;2023-07-20T02:16:51;19.70;82.10
20777;DHT22;10548;47.504;8.248;2023-07-20T02:19:29;19.70;82.20
20777;DHT22;10548;47.504;8.248;2023-07-20T02:21:56;19.70;81.00
20777;DHT22;10548;47.504;8.248;2023-07-20T02:24:25;19.70;82.40
20777;DHT22;10548;47.504;8.248;2023-07-20T02:26:52;19.60;82.60
20777;DHT22;10548;47.504;8.248;2023-07-20T02:29:19;19.60;83.10
20777;DHT22;10548;47.504;8.248;2023-07-20T02:31:46;19.60;82.30
20777;DHT22;10548;47.504;8.248;2023-07-20T02:34:14;19.60;82.10
20777;DHT22;10548;47.504;8.248;2023-07-20T02:36:41;19.50;82.80
20777;DHT22;10548;47.504;8.248;2023-07-20T02:39:09;19.50;84.10
20777;DHT22;10548;47.504;8.248;2023-07-20T02:41:37;19.40;84.80
20777;DHT22;10548;47.504;8.248;2023-07-20T02:44:04;19.50;84.40
20777;DHT22;10548;47.504;8.248;2023-07-20T02:46:32;19.50;84.40
20777;DHT22;10548;47.504;8.248;2023-07-20T02:48:59;19.40;85.50
20777;DHT22;10548;47.504;8.248;2023-07-20T02:51:26;19.30;87.70
20777;DHT22;10548;47.504;8.248;2023-07-20T02:53:53;19.20;88.00
20777;DHT22;10548;47.504;8.248;2023-07-20T02:56:21;19.10;89.30
20777;DHT22;10548;47.504;8.248;2023-07-20T02:58:50;19.10;89.30
20777;DHT22;10548;47.504;8.248;2023-07-20T03:01:17;19.00;89.50
20777;DHT22;10548;47.504;8.248;2023-07-20T03:03:45;18.90;90.50
20777;DHT22;10548;47.504;8.248;2023-07-20T03:06:15;18.90;90.70
20777;DHT22;10548;47.504;8.248;2023-07-20T03:08:43;18.80;91.10
20777;DHT22;10548;47.504;8.248;2023-07-20T03:11:16;18.80;91.20
20777;DHT22;10548;47.504;8.248;2023-07-20T03:13:43;18.70;91.30
20777;DHT22;10548;47.504;8.248;2023-07-20T03:16:12;18.70;91.30
20777;DHT22;10548;47.504;8.248;2023-07-20T03:18:42;18.60;91.70
20777;DHT22;10548;47.504;8.248;2023-07-20T03:21:10;18.60;91.30
20777;DHT22;10548;47.504;8.248;2023-07-20T03:23:40;18.60;91.60
20777;DHT22;10548;47.504;8.248;2023-07-20T03:26:09;18.60;91.80
20777;DHT22;10548;47.504;8.248;2023-07-20T03:28:38;18.60;91.40
20777;DHT22;10548;47.504;8.248;2023-07-20T03:31:05;18.60;91.70
20777;DHT22;10548;47.504;8.248;2023-07-20T03:33:36;18.50;92.10
20777;DHT22;10548;47.504;8.248;2023-07-20T03:36:04;18.50;92.50
20777;DHT22;10548;47.504;8.248;2023-07-20T03:38:32;18.50;92.70
20777;DHT22;10548;47.504;8.248;2023-07-20T03:41:00;18.50;92.60
20777;DHT22;10548;47.504;8.248;2023-07-20T03:43:28;18.50;93.40
20777;DHT22;10548;47.504;8.248;2023-07-20T03:45:55;18.40;93.90
20777;DHT22;10548;47.504;8.248;2023-07-20T03:48:25;18.40;93.70
20777;DHT22;10548;47.504;8.248;2023-07-20T03:50:53;18.30;94.00
20777;DHT22;10548;47.504;8.248;2023-07-20T03:53:21;18.30;94.70
20777;DHT22;10548;47.504;8.248;2023-07-20T03:55:51;18.10;95.20
20777;DHT22;10548;47.504;8.248;2023-07-20T03:58:19;18.00;96.30
20777;DHT22;10548;47.504;8.248;2023-07-20T04:00:49;18.00;96.70
20777;DHT22;10548;47.504;8.248;2023-07-20T04:03:18;18.00;97.10
20777;DHT22;10548;47.504;8.248;2023-07-20T04:05:46;18.00;97.50
20777;DHT22;10548;47.504;8.248;2023-07-20T04:08:13;18.00;97.70
20777;DHT22;10548;47.504;8.248;2023-07-20T04:10:43;18.00;98.00
20777;DHT22;10548;47.504;8.248;2023-07-20T04:13:12;18.00;98.90
20777;DHT22;10548;47.504;8.248;2023-07-20T04:15:39;18.00;99.90
20777;DHT22;10548;47.504;8.248;2023-07-20T04:18:06;18.00;99.90
20777;DHT22;10548;47.504;8.248;2023-07-20T04:20:34;18.10;99.90
20777;DHT22;10548;47.504;8.248;2023-07-20T04:23:01;18.10;99.80
20777;DHT22;10548;47.504;8.248;2023-07-20T04:25:29;18.10;99.30
20777;DHT22;10548;47.504;8.248;2023-07-20T04:28:07;18.10;99.40
20777;DHT22;10548;47.504;8.248;2023-07-20T04:30:42;18.20;99.50
20777;DHT22;10548;47.504;8.248;2023-07-20T04:33:09;18.30;99.90
20777;DHT22;10548;47.504;8.248;2023-07-20T04:35:49;18.20;99.90
20777;DHT22;10548;47.504;8.248;2023-07-20T04:38:19;18.30;99.90
20777;DHT22;10548;47.504;8.248;2023-07-20T04:40:51;18.30;99.90
20777;DHT22;10548;47.504;8.248;2023-07-20T04:43:19;18.30;99.90
20777;DHT22;10548;47.504;8.248;2023-07-20T04:45:46;18.30;99.90
20777;DHT22;10548;47.504;8.248;2023-07-20T04:48:15;18.40;99.90
20777;DHT22;10548;47.504;8.248;2023-07-20T04:50:49;18.40;99.90
20777;DHT22;10548;47.504;8.248;2023-07-20T04:53:17;18.40;99.90
20777;DHT22;10548;47.504;8.248;2023-07-20T04:55:49;18.40;99.90
20777;DHT22;10548;47.504;8.248;2023-07-20T04:58:23;18.40;99.90
20777;DHT22;10548;47.504;8.248;2023-07-20T05:00:52;18.40;99.90
20777;DHT22;10548;47.504;8.248;2023-07-20T05:03:20;18.40;99.90
20777;DHT22;10548;47.504;8.248;2023-07-20T05:05:48;18.50;99.90
20777;DHT22;10548;47.504;8.248;2023-07-20T05:08:16;18.50;99.90
20777;DHT22;10548;47.504;8.248;2023-07-20T05:10:43;18.60;99.90
20777;DHT22;10548;47.504;8.248;2023-07-20T05:13:11;18.60;99.90
20777;DHT22;10548;47.504;8.248;2023-07-20T05:15:38;18.70;99.90
20777;DHT22;10548;47.504;8.248;2023-07-20T05:18:08;18.80;99.90
20777;DHT22;10548;47.504;8.248;2023-07-20T05:20:36;18.80;99.90
20777;DHT22;10548;47.504;8.248;2023-07-20T05:23:04;18.90;99.90
20777;DHT22;10548;47.504;8.248;2023-07-20T05:25:31;18.90;99.90
20777;DHT22;10548;47.504;8.248;2023-07-20T05:27:58;19.10;99.90
20777;DHT22;10548;47.504;8.248;2023-07-20T05:30:25;19.20;99.90
20777;DHT22;10548;47.504;8.248;2023-07-20T05:32:52;19.20;99.90
20777;DHT22;10548;47.504;8.248;2023-07-20T05:35:21;19.00;99.90
20777;DHT22;10548;47.504;8.248;2023-07-20T05:37:49;18.90;99.90
20777;DHT22;10548;47.504;8.248;2023-07-20T05:40:16;19.00;99.90
20777;DHT22;10548;47.504;8.248;2023-07-20T05:42:47;19.10;99.90
20777;DHT22;10548;47.504;8.248;2023-07-20T05:45:15;19.30;99.90
20777;DHT22;10548;47.504;8.248;2023-07-20T05:47:42;19.50;99.90
20777;DHT22;10548;47.504;8.248;2023-07-20T05:50:10;19.60;99.90
20777;DHT22;10548;47.504;8.248;2023-07-20T05:52:37;19.30;99.90
20777;DHT22;10548;47.504;8.248;2023-07-20T05:55:06;19.40;99.90
20777;DHT22;10548;47.504;8.248;2023-07-20T05:57:33;19.40;99.90
20777;DHT22;10548;47.504;8.248;2023-07-20T06:00:02;19.50;99.90
20777;DHT22;10548;47.504;8.248;2023-07-20T06:02:38;19.60;99.90
20777;DHT22;10548;47.504;8.248;2023-07-20T06:05:06;19.70;99.90
20777;DHT22;10548;47.504;8.248;2023-07-20T06:07:39;19.70;99.90
20777;DHT22;10548;47.504;8.248;2023-07-20T06:10:06;19.70;99.90
20777;DHT22;10548;47.504;8.248;2023-07-20T06:12:34;19.60;99.90
20777;DHT22;10548;47.504;8.248;2023-07-20T06:15:05;19.70;99.90
20777;DHT22;10548;47.504;8.248;2023-07-20T06:17:33;19.80;99.90
20777;DHT22;10548;47.504;8.248;2023-07-20T06:20:00;20.00;99.90
20777;DHT22;10548;47.504;8.248;2023-07-20T06:22:29;20.30;99.90
20777;DHT22;10548;47.504;8.248;2023-07-20T06:24:56;20.50;99.90
20777;DHT22;10548;47.504;8.248;2023-07-20T06:27:23;20.80;98.10
20777;DHT22;10548;47.504;8.248;2023-07-20T06:29:51;20.90;96.40
20777;DHT22;10548;47.504;8.248;2023-07-20T06:32:18;20.50;96.90
20777;DHT22;10548;47.504;8.248;2023-07-20T06:34:45;20.50;95.20
20777;DHT22;10548;47.504;8.248;2023-07-20T06:37:12;20.60;98.40
20777;DHT22;10548;47.504;8.248;2023-07-20T06:39:39;20.50;97.80
20777;DHT22;10548;47.504;8.248;2023-07-20T06:42:09;20.40;97.70
20777;DHT22;10548;47.504;8.248;2023-07-20T06:44:36;20.60;98.50
20777;DHT22;10548;47.504;8.248;2023-07-20T06:47:03;20.90;97.60
20777;DHT22;10548;47.504;8.248;2023-07-20T06:49:31;21.00;96.40
20777;DHT22;10548;47.504;8.248;2023-07-20T06:51:58;21.00;95.50
20777;DHT22;10548;47.504;8.248;2023-07-20T06:54:25;20.70;95.20
20777;DHT22;10548;47.504;8.248;2023-07-20T06:56:53;20.90;95.40
20777;DHT22;10548;47.504;8.248;2023-07-20T06:59:23;21.00;95.50
20777;DHT22;10548;47.504;8.248;2023-07-20T07:01:51;21.00;94.50
20777;DHT22;10548;47.504;8.248;2023-07-20T07:04:18;21.00;94.90
20777;DHT22;10548;47.504;8.248;2023-07-20T07:06:46;21.30;95.30
20777;DHT22;10548;47.504;8.248;2023-07-20T07:09:13;21.50;94.50
20777;DHT22;10548;47.504;8.248;2023-07-20T07:11:40;21.40;93.20
20777;DHT22;10548;47.504;8.248;2023-07-20T07:14:07;21.40;92.80
20777;DHT22;10548;47.504;8.248;2023-07-20T07:16:34;21.40;92.90
20777;DHT22;10548;47.504;8.248;2023-07-20T07:19:05;21.40;93.40
20777;DHT22;10548;47.504;8.248;2023-07-20T07:21:32;21.40;93.70
20777;DHT22;10548;47.504;8.248;2023-07-20T07:23:59;21.10;94.30
20777;DHT22;10548;47.504;8.248;2023-07-20T07:26:26;21.20;93.70
20777;DHT22;10548;47.504;8.248;2023-07-20T07:28:54;21.00;93.90
20777;DHT22;10548;47.504;8.248;2023-07-20T07:31:21;21.20;93.20
20777;DHT22;10548;47.504;8.248;2023-07-20T07:33:48;21.40;93.00
20777;DHT22;10548;47.504;8.248;2023-07-20T07:36:15;21.40;93.70
20777;DHT22;10548;47.504;8.248;2023-07-20T07:38:42;21.40;92.50
20777;DHT22;10548;47.504;8.248;2023-07-20T07:41:13;21.60;92.00
20777;DHT22;10548;47.504;8.248;2023-07-20T07:43:40;21.70;90.70
20777;DHT22;10548;47.504;8.248;2023-07-20T07:46:08;21.60;91.80
20777;DHT22;10548;47.504;8.248;2023-07-20T07:48:35;21.50;93.10
20777;DHT22;10548;47.504;8.248;2023-07-20T07:51:02;21.90;91.90
20777;DHT22;10548;47.504;8.248;2023-07-20T07:53:29;22.10;91.30
20777;DHT22;10548;47.504;8.248;2023-07-20T07:55:56;21.80;92.30
20777;DHT22;10548;47.504;8.248;2023-07-20T07:58:23;21.90;88.50
20777;DHT22;10548;47.504;8.248;2023-07-20T08:00:50;21.70;90.60
20777;DHT22;10548;47.504;8.248;2023-07-20T08:03:18;21.70;89.70
20777;DHT22;10548;47.504;8.248;2023-07-20T08:05:45;21.90;88.60
20777;DHT22;10548;47.504;8.248;2023-07-20T08:08:13;21.50;90.60
20777;DHT22;10548;47.504;8.248;2023-07-20T08:10:40;22.10;89.50
20777;DHT22;10548;47.504;8.248;2023-07-20T08:13:07;21.80;87.30
20777;DHT22;10548;47.504;8.248;2023-07-20T08:15:34;21.80;90.10
20777;DHT22;10548;47.504;8.248;2023-07-20T08:18:01;21.90;90.40
20777;DHT22;10548;47.504;8.248;2023-07-20T08:20:29;22.40;85.10
20777;DHT22;10548;47.504;8.248;2023-07-20T08:22:56;21.90;88.00
20777;DHT22;10548;47.504;8.248;2023-07-20T08:25:25;21.90;86.00
20777;DHT22;10548;47.504;8.248;2023-07-20T08:27:52;21.80;86.90
20777;DHT22;10548;47.504;8.248;2023-07-20T08:30:21;21.90;87.10
20777;DHT22;10548;47.504;8.248;2023-07-20T08:32:50;21.90;84.00
20777;DHT22;10548;47.504;8.248;2023-07-20T08:35:17;22.40;88.20
20777;DHT22;10548;47.504;8.248;2023-07-20T08:37:48;22.60;78.00
20777;DHT22;10548;47.504;8.248;2023-07-20T08:40:15;21.90;72.40
20777;DHT22;10548;47.504;8.248;2023-07-20T08:42:42;21.50;75.50
20777;DHT22;10548;47.504;8.248;2023-07-20T08:45:13;22.00;78.00
20777;DHT22;10548;47.504;8.248;2023-07-20T08:47:42;22.50;81.40
20777;DHT22;10548;47.504;8.248;2023-07-20T08:50:11;22.50;74.60
20777;DHT22;10548;47.504;8.248;2023-07-20T08:52:39;22.80;75.40
20777;DHT22;10548;47.504;8.248;2023-07-20T08:55:07;22.90;71.50
20777;DHT22;10548;47.504;8.248;2023-07-20T08:57:36;22.40;70.00
20777;DHT22;10548;47.504;8.248;2023-07-20T09:00:06;22.20;70.00
20777;DHT22;10548;47.504;8.248;2023-07-20T09:02:41;22.30;73.00
20777;DHT22;10548;47.504;8.248;2023-07-20T09:05:10;22.10;72.00
20777;DHT22;10548;47.504;8.248;2023-07-20T09:07:38;22.20;76.20
20777;DHT22;10548;47.504;8.248;2023-07-20T09:10:06;21.80;72.00
20777;DHT22;10548;47.504;8.248;2023-07-20T09:12:39;22.40;70.50
20777;DHT22;10548;47.504;8.248;2023-07-20T09:15:08;22.50;68.40
20777;DHT22;10548;47.504;8.248;2023-07-20T09:17:35;23.00;70.30
20777;DHT22;10548;47.504;8.248;2023-07-20T09:20:05;22.80;66.40
20777;DHT22;10548;47.504;8.248;2023-07-20T09:22:38;22.70;67.00
20777;DHT22;10548;47.504;8.248;2023-07-20T09:25:13;22.90;66.40
20777;DHT22;10548;47.504;8.248;2023-07-20T09:27:44;24.40;64.60
20777;DHT22;10548;47.504;8.248;2023-07-20T09:30:13;24.70;59.90
20777;DHT22;10548;47.504;8.248;2023-07-20T09:32:49;25.10;59.00
20777;DHT22;10548;47.504;8.248;2023-07-20T09:35:22;25.40;56.80
20777;DHT22;10548;47.504;8.248;2023-07-20T09:37:59;26.10;54.60
20777;DHT22;10548;47.504;8.248;2023-07-20T09:40:29;26.20;55.20
20777;DHT22;10548;47.504;8.248;2023-07-20T09:42:59;25.80;57.60
20777;DHT22;10548;47.504;8.248;2023-07-20T09:45:33;25.20;55.40
20777;DHT22;10548;47.504;8.248;2023-07-20T09:48:04;25.30;53.60
20777;DHT22;10548;47.504;8.248;2023-07-20T09:50:43;25.60;55.60
20777;DHT22;10548;47.504;8.248;2023-07-20T09:53:12;26.10;55.60
20777;DHT22;10548;47.504;8.248;2023-07-20T09:55:45;25.70;50.00
20777;DHT22;10548;47.504;8.248;2023-07-20T09:58:13;25.70;50.60
20777;DHT22;10548;47.504;8.248;2023-07-20T10:00:41;25.70;51.10
20777;DHT22;10548;47.504;8.248;2023-07-20T10:03:19;25.40;53.00
20777;DHT22;10548;47.504;8.248;2023-07-20T10:06:04;26.90;49.30
20777;DHT22;10548;47.504;8.248;2023-07-20T10:08:33;27.10;49.30
20777;DHT22;10548;47.504;8.248;2023-07-20T10:11:04;25.90;51.30
20777;DHT22;10548;47.504;8.248;2023-07-20T10:13:37;25.50;51.40
20777;DHT22;10548;47.504;8.248;2023-07-20T10:16:11;25.10;52.20
20777;DHT22;10548;47.504;8.248;2023-07-20T10:18:49;25.30;51.80
20777;DHT22;10548;47.504;8.248;2023-07-20T10:21:20;25.40;49.50
20777;DHT22;10548;47.504;8.248;2023-07-20T10:23:53;25.80;52.40
20777;DHT22;10548;47.504;8.248;2023-07-20T10:26:21;25.00;52.70
20777;DHT22;10548;47.504;8.248;2023-07-20T10:28:50;24.80;53.90
20777;DHT22;10548;47.504;8.248;2023-07-20T10:31:18;25.50;56.80
20777;DHT22;10548;47.504;8.248;2023-07-20T10:33:46;25.80;52.50
20777;DHT22;10548;47.504;8.248;2023-07-20T10:36:13;26.10;48.40
20777;DHT22;10548;47.504;8.248;2023-07-20T10:39:06;25.80;50.40
20777;DHT22;10548;47.504;8.248;2023-07-20T10:41:40;27.00;49.40
20777;DHT22;10548;47.504;8.248;2023-07-20T10:44:08;26.20;50.40
20777;DHT22;10548;47.504;8.248;2023-07-20T10:46:43;26.10;49.60
20777;DHT22;10548;47.504;8.248;2023-07-20T10:49:13;26.30;44.40
20777;DHT22;10548;47.504;8.248;2023-07-20T10:51:55;25.30;49.70
20777;DHT22;10548;47.504;8.248;2023-07-20T10:54:49;25.60;50.20
20777;DHT22;10548;47.504;8.248;2023-07-20T10:57:30;25.90;49.30
20777;DHT22;10548;47.504;8.248;2023-07-20T11:00:20;26.80;44.60
20777;DHT22;10548;47.504;8.248;2023-07-20T11:02:49;27.60;42.10
20777;DHT22;10548;47.504;8.248;2023-07-20T11:05:38;26.40;45.90
20777;DHT22;10548;47.504;8.248;2023-07-20T11:08:39;26.00;47.80
20777;DHT22;10548;47.504;8.248;2023-07-20T11:11:34;26.80;48.70
20777;DHT22;10548;47.504;8.248;2023-07-20T11:14:08;26.60;42.40
20777;DHT22;10548;47.504;8.248;2023-07-20T11:16:46;26.30;48.50
20777;DHT22;10548;47.504;8.248;2023-07-20T11:19:24;26.00;46.80
20777;DHT22;10548;47.504;8.248;2023-07-20T11:21:56;26.40;45.30
20777;DHT22;10548;47.504;8.248;2023-07-20T11:24:29;25.60;45.10
20777;DHT22;10548;47.504;8.248;2023-07-20T11:26:57;26.30;45.40
20777;DHT22;10548;47.504;8.248;2023-07-20T11:29:24;27.20;46.30
20777;DHT22;10548;47.504;8.248;2023-07-20T11:32:00;28.50;43.70
20777;DHT22;10548;47.504;8.248;2023-07-20T11:34:30;27.00;45.60
20777;DHT22;10548;47.504;8.248;2023-07-20T11:36:57;26.70;46.30
20777;DHT22;10548;47.504;8.248;2023-07-20T11:39:29;28.40;42.00
20777;DHT22;10548;47.504;8.248;2023-07-20T11:41:57;28.50;44.50
20777;DHT22;10548;47.504;8.248;2023-07-20T11:44:26;28.10;39.00
20777;DHT22;10548;47.504;8.248;2023-07-20T11:47:05;27.80;41.30
20777;DHT22;10548;47.504;8.248;2023-07-20T11:49:43;27.20;42.90
20777;DHT22;10548;47.504;8.248;2023-07-20T11:52:13;27.00;43.10
20777;DHT22;10548;47.504;8.248;2023-07-20T11:54:43;27.90;41.40
20777;DHT22;10548;47.504;8.248;2023-07-20T11:57:19;28.50;41.00
20777;DHT22;10548;47.504;8.248;2023-07-20T11:59:57;27.40;43.00
20777;DHT22;10548;47.504;8.248;2023-07-20T12:02:29;26.70;47.30
20777;DHT22;10548;47.504;8.248;2023-07-20T12:04:56;28.00;41.40
20777;DHT22;10548;47.504;8.248;2023-07-20T12:07:27;29.70;36.40
20777;DHT22;10548;47.504;8.248;2023-07-20T12:10:08;30.60;33.70
20777;DHT22;10548;47.504;8.248;2023-07-20T12:12:39;28.80;35.60
20777;DHT22;10548;47.504;8.248;2023-07-20T12:15:26;28.40;36.70
20777;DHT22;10548;47.504;8.248;2023-07-20T12:17:55;28.00;42.20
20777;DHT22;10548;47.504;8.248;2023-07-20T12:20:34;29.10;39.70
20777;DHT22;10548;47.504;8.248;2023-07-20T12:23:09;28.10;41.10
20777;DHT22;10548;47.504;8.248;2023-07-20T12:25:46;29.30;37.20
20777;DHT22;10548;47.504;8.248;2023-07-20T12:28:17;29.00;38.70
20777;DHT22;10548;47.504;8.248;2023-07-20T12:30:45;29.20;34.90
20777;DHT22;10548;47.504;8.248;2023-07-20T12:33:13;27.50;36.90
20777;DHT22;10548;47.504;8.248;2023-07-20T12:35:43;27.60;39.30
20777;DHT22;10548;47.504;8.248;2023-07-20T12:38:10;27.40;40.70
20777;DHT22;10548;47.504;8.248;2023-07-20T12:40:37;27.10;41.80
20777;DHT22;10548;47.504;8.248;2023-07-20T12:43:04;26.10;42.50
20777;DHT22;10548;47.504;8.248;2023-07-20T12:45:32;26.40;43.80
20777;DHT22;10548;47.504;8.248;2023-07-20T12:47:59;26.80;41.20
20777;DHT22;10548;47.504;8.248;2023-07-20T12:50:26;27.20;39.60
20777;DHT22;10548;47.504;8.248;2023-07-20T12:52:54;27.60;40.00
20777;DHT22;10548;47.504;8.248;2023-07-20T12:55:21;27.80;38.70
20777;DHT22;10548;47.504;8.248;2023-07-20T12:57:48;28.30;40.00
20777;DHT22;10548;47.504;8.248;2023-07-20T13:00:16;29.00;38.50
20777;DHT22;10548;47.504;8.248;2023-07-20T13:02:43;28.50;38.60
20777;DHT22;10548;47.504;8.248;2023-07-20T13:05:10;28.20;38.90
20777;DHT22;10548;47.504;8.248;2023-07-20T13:07:38;28.50;37.70
20777;DHT22;10548;47.504;8.248;2023-07-20T13:10:09;28.80;38.90
20777;DHT22;10548;47.504;8.248;2023-07-20T13:12:37;27.50;39.10
20777;DHT22;10548;47.504;8.248;2023-07-20T13:15:06;26.80;40.80
20777;DHT22;10548;47.504;8.248;2023-07-20T13:17:35;27.20;40.90
20777;DHT22;10548;47.504;8.248;2023-07-20T13:20:03;28.50;40.50
20777;DHT22;10548;47.504;8.248;2023-07-20T13:22:31;29.50;37.00
20777;DHT22;10548;47.504;8.248;2023-07-20T13:24:58;27.60;35.50
20777;DHT22;10548;47.504;8.248;2023-07-20T13:27:26;28.00;41.90
20777;DHT22;10548;47.504;8.248;2023-07-20T13:29:53;28.90;37.70
20777;DHT22;10548;47.504;8.248;2023-07-20T13:32:21;29.70;35.00
20777;DHT22;10548;47.504;8.248;2023-07-20T13:34:50;27.70;38.00
20777;DHT22;10548;47.504;8.248;2023-07-20T13:37:18;29.10;38.60
20777;DHT22;10548;47.504;8.248;2023-07-20T13:39:48;28.80;37.70
20777;DHT22;10548;47.504;8.248;2023-07-20T13:42:15;29.90;36.40
20777;DHT22;10548;47.504;8.248;2023-07-20T13:44:45;28.90;35.60
20777;DHT22;10548;47.504;8.248;2023-07-20T13:47:13;28.60;37.90
20777;DHT22;10548;47.504;8.248;2023-07-20T13:49:44;29.80;34.80
20777;DHT22;10548;47.504;8.248;2023-07-20T13:52:14;30.40;35.40
20777;DHT22;10548;47.504;8.248;2023-07-20T13:54:44;29.30;36.50
20777;DHT22;10548;47.504;8.248;2023-07-20T13:57:14;29.20;34.70
20777;DHT22;10548;47.504;8.248;2023-07-20T13:59:43;28.80;38.10
20777;DHT22;10548;47.504;8.248;2023-07-20T14:02:10;27.40;40.20
20777;DHT22;10548;47.504;8.248;2023-07-20T14:04:40;27.60;38.70
20777;DHT22;10548;47.504;8.248;2023-07-20T14:07:08;27.80;36.70
20777;DHT22;10548;47.504;8.248;2023-07-20T14:09:36;28.10;40.70
20777;DHT22;10548;47.504;8.248;2023-07-20T14:12:04;27.80;41.00
20777;DHT22;10548;47.504;8.248;2023-07-20T14:14:34;27.60;39.50
20777;DHT22;10548;47.504;8.248;2023-07-20T14:17:01;27.20;39.50
20777;DHT22;10548;47.504;8.248;2023-07-20T14:19:28;28.30;39.60
20777;DHT22;10548;47.504;8.248;2023-07-20T14:21:55;28.20;38.50
20777;DHT22;10548;47.504;8.248;2023-07-20T14:24:26;28.40;38.10
20777;DHT22;10548;47.504;8.248;2023-07-20T14:26:53;27.50;38.70
20777;DHT22;10548;47.504;8.248;2023-07-20T14:29:21;27.10;40.50
20777;DHT22;10548;47.504;8.248;2023-07-20T14:31:53;27.10;41.00
20777;DHT22;10548;47.504;8.248;2023-07-20T14:34:20;28.50;38.60
20777;DHT22;10548;47.504;8.248;2023-07-20T14:36:47;28.60;38.00
20777;DHT22;10548;47.504;8.248;2023-07-20T14:39:14;29.30;37.10
20777;DHT22;10548;47.504;8.248;2023-07-20T14:41:42;28.60;35.30
20777;DHT22;10548;47.504;8.248;2023-07-20T14:44:09;28.80;37.70
20777;DHT22;10548;47.504;8.248;2023-07-20T14:46:37;29.70;34.70
20777;DHT22;10548;47.504;8.248;2023-07-20T14:49:04;29.00;34.30
20777;DHT22;10548;47.504;8.248;2023-07-20T14:51:31;28.00;38.30
20777;DHT22;10548;47.504;8.248;2023-07-20T14:54:03;28.30;36.70
20777;DHT22;10548;47.504;8.248;2023-07-20T14:56:30;27.30;39.70
20777;DHT22;10548;47.504;8.248;2023-07-20T14:58:57;27.20;40.30
20777;DHT22;10548;47.504;8.248;2023-07-20T15:01:25;27.30;40.60
20777;DHT22;10548;47.504;8.248;2023-07-20T15:03:52;26.90;40.30
20777;DHT22;10548;47.504;8.248;2023-07-20T15:06:25;26.50;39.60
20777;DHT22;10548;47.504;8.248;2023-07-20T15:08:53;26.60;44.60
20777;DHT22;10548;47.504;8.248;2023-07-20T15:11:20;26.50;43.70
20777;DHT22;10548;47.504;8.248;2023-07-20T15:13:47;26.50;42.40
20777;DHT22;10548;47.504;8.248;2023-07-20T15:16:14;26.60;43.50
20777;DHT22;10548;47.504;8.248;2023-07-20T15:18:41;26.10;42.60
20777;DHT22;10548;47.504;8.248;2023-07-20T15:21:17;26.00;42.90
20777;DHT22;10548;47.504;8.248;2023-07-20T15:23:44;26.00;43.00
20777;DHT22;10548;47.504;8.248;2023-07-20T15:26:12;26.10;43.30
20777;DHT22;10548;47.504;8.248;2023-07-20T15:28:39;26.90;42.10
20777;DHT22;10548;47.504;8.248;2023-07-20T15:31:07;27.00;41.40
20777;DHT22;10548;47.504;8.248;2023-07-20T15:33:35;26.40;43.50
20777;DHT22;10548;47.504;8.248;2023-07-20T15:36:02;26.20;42.10
20777;DHT22;10548;47.504;8.248;2023-07-20T15:38:31;26.20;43.40
20777;DHT22;10548;47.504;8.248;2023-07-20T15:40:58;26.90;41.20
20777;DHT22;10548;47.504;8.248;2023-07-20T15:43:28;26.90;41.00
20777;DHT22;10548;47.504;8.248;2023-07-20T15:48:58;27.80;39.30
20777;DHT22;10548;47.504;8.248;2023-07-20T15:51:25;27.60;40.00